Time;durP1;ratioP1;P1;durP2;ratioP2;P2;SDS_P1;SDS_P2;PMS_P1;PMS_P2;Temp;Humidity;BMP_temperature;BMP_pressure;BME280_temperature;BME280_humidity;BME280_pressure;Samples;Min_cycle;Max_cycle;Signal;HPM_P1;HPM_P2
2023/03/30 00:01:25;;;;;;;1999.90;999.90;;;29.60;78.90;;;;;;5029730;28;20476;-76
2023/03/30 00:03:53;;;;;;;1999.90;999.90;;;29.90;78.40;;;;;;5030810;28;20025;-75
2023/03/30 00:06:23;;;;;;;1999.90;999.90;;;30.00;77.60;;;;;;5032197;28;20388;-73
2023/03/30 00:08:58;;;;;;;1999.90;999.90;;;30.00;74.90;;;;;;5023991;28;20029;-72
2023/03/30 00:11:26;;;;;;;1999.90;999.90;;;29.70;77.50;;;;;;5017411;28;20030;-72
2023/03/30 00:13:54;;;;;;;1999.90;999.90;;;29.80;76.80;;;;;;5015563;28;20033;-74
2023/03/30 00:16:22;;;;;;;1999.90;999.90;;;30.10;77.80;;;;;;5022856;28;20025;-74
2023/03/30 00:18:49;;;;;;;1999.90;999.90;;;30.20;77.60;;;;;;5021415;28;20053;-75
2023/03/30 00:21:17;;;;;;;1999.90;999.90;;;30.50;76.70;;;;;;5032126;28;20041;-73
2023/03/30 00:23:47;;;;;;;1999.90;999.90;;;30.70;75.80;;;;;;5028857;28;20037;-73
2023/03/30 00:26:16;;;;;;;1999.90;999.90;;;30.70;74.30;;;;;;5028488;28;20113;-73
2023/03/30 00:28:43;;;;;;;1999.90;999.90;;;30.40;75.00;;;;;;5029402;28;20064;-74
2023/03/30 00:31:11;;;;;;;1999.90;999.90;;;30.50;75.60;;;;;;5029647;28;20060;-72
2023/03/30 00:33:38;;;;;;;1999.90;999.90;;;30.60;76.00;;;;;;5032324;28;20048;-73
2023/03/30 00:36:06;;;;;;;1999.90;999.90;;;30.90;75.00;;;;;;5032594;28;20013;-73
2023/03/30 00:38:33;;;;;;;1999.90;999.90;;;31.10;74.60;;;;;;5033072;28;20036;-76
2023/03/30 00:41:01;;;;;;;1999.90;999.90;;;31.20;75.40;;;;;;5030842;28;20024;-73
2023/03/30 00:43:29;;;;;;;1999.90;999.90;;;31.40;73.20;;;;;;5024970;28;20112;-72
2023/03/30 00:45:57;;;;;;;1999.90;999.90;;;30.80;71.40;;;;;;5029175;28;20118;-72
2023/03/30 00:48:27;;;;;;;1999.90;999.90;;;30.40;73.40;;;;;;5027537;28;20025;-72
2023/03/30 00:51:03;;;;;;;1999.90;999.90;;;30.40;73.60;;;;;;5033835;28;20517;-72
2023/03/30 00:53:35;;;;;;;1999.90;999.90;;;30.40;74.10;;;;;;5027927;28;20498;-73
2023/03/30 00:56:04;;;;;;;1999.90;999.90;;;30.60;74.90;;;;;;5033612;28;20029;-73
2023/03/30 00:58:31;;;;;;;1999.90;999.90;;;31.00;75.30;;;;;;5021195;28;20724;-74
2023/03/30 01:01:02;;;;;;;1999.90;999.90;;;31.40;75.00;;;;;;5022660;28;20029;-73
2023/03/30 01:03:36;;;;;;;1999.90;999.90;;;31.00;71.50;;;;;;5024917;28;20028;-71
2023/03/30 01:06:06;;;;;;;1999.90;999.90;;;30.80;73.00;;;;;;5024928;28;20534;-73
2023/03/30 01:08:35;;;;;;;1999.90;999.90;;;30.90;74.10;;;;;;5023232;28;20036;-73
2023/03/30 01:11:06;;;;;;;1999.90;999.90;;;31.00;73.10;;;;;;5024380;28;20033;-72
2023/03/30 01:13:38;;;;;;;1999.90;999.90;;;31.20;73.30;;;;;;5020755;28;20044;-73
2023/03/30 01:16:08;;;;;;;1999.90;999.90;;;31.10;72.40;;;;;;5029095;28;20041;-72
2023/03/30 01:18:59;;;;;;;1999.90;999.90;;;31.00;73.50;;;;;;5022575;28;20542;-74
2023/03/30 01:22:00;;;;;;;1999.90;999.90;;;30.90;70.20;;;;;;5030480;28;20021;-72
2023/03/30 01:24:41;;;;;;;1999.90;999.90;;;30.90;72.20;;;;;;5035037;28;20038;-75
2023/03/30 01:27:44;;;;;;;1999.90;999.90;;;31.00;73.30;;;;;;5028874;28;20559;-74
2023/03/30 01:30:43;;;;;;;1999.90;999.90;;;31.10;71.20;;;;;;5037433;28;20107;-76
2023/03/30 01:33:32;;;;;;;1999.90;999.90;;;31.20;73.50;;;;;;5009437;28;20041;-74
2023/03/30 01:36:35;;;;;;;1999.90;999.90;;;31.20;71.00;;;;;;5024150;28;20044;-73
2023/03/30 01:39:34;;;;;;;1999.90;999.90;;;31.10;71.50;;;;;;5020188;28;20029;-73
2023/03/30 01:42:16;;;;;;;1999.90;999.90;;;31.10;69.90;;;;;;5034115;28;20037;-74
2023/03/30 01:44:55;;;;;;;1999.90;999.90;;;31.00;71.60;;;;;;5025367;28;20099;-73
2023/03/30 01:48:06;;;;;;;1999.90;999.90;;;30.80;70.40;;;;;;5031555;28;20045;-76
2023/03/30 01:51:00;;;;;;;1999.90;999.90;;;30.70;70.20;;;;;;5029303;28;20068;-73
2023/03/30 01:53:42;;;;;;;1999.90;999.90;;;30.40;72.10;;;;;;5019922;28;21496;-74
2023/03/30 01:56:40;;;;;;;1999.90;999.90;;;30.40;72.80;;;;;;5029083;28;20069;-74
2023/03/30 01:59:32;;;;;;;1999.90;999.90;;;30.50;71.70;;;;;;5033138;28;20422;-74
2023/03/30 02:02:05;;;;;;;1999.90;999.90;;;30.70;71.00;;;;;;5029559;28;20032;-73
2023/03/30 02:04:37;;;;;;;1999.90;999.90;;;30.70;72.40;;;;;;5021753;28;20033;-72
2023/03/30 02:07:18;;;;;;;1999.90;999.90;;;30.80;72.00;;;;;;5034045;28;20044;-72
2023/03/30 02:09:47;;;;;;;1999.90;999.90;;;30.70;70.30;;;;;;5025669;28;20061;-72
2023/03/30 02:12:15;;;;;;;1999.90;999.90;;;30.40;71.40;;;;;;5028942;28;20392;-72
2023/03/30 02:14:43;;;;;;;1999.90;999.90;;;30.60;73.10;;;;;;5032135;28;20044;-72
2023/03/30 02:17:19;;;;;;;1999.90;999.90;;;30.80;71.40;;;;;;5032792;28;20032;-72
2023/03/30 02:19:47;;;;;;;1999.90;999.90;;;30.80;71.30;;;;;;5033208;28;20044;-71
2023/03/30 02:22:16;;;;;;;1999.90;999.90;;;30.50;69.90;;;;;;5026791;28;20060;-73
2023/03/30 02:24:47;;;;;;;1999.90;999.90;;;30.50;72.00;;;;;;5030298;28;20115;-74
2023/03/30 02:27:16;;;;;;;1999.90;999.90;;;30.70;72.60;;;;;;5028596;28;20028;-73
2023/03/30 02:29:45;;;;;;;1999.90;999.90;;;31.00;71.40;;;;;;5028909;28;20038;-72
2023/03/30 02:32:23;;;;;;;1999.90;999.90;;;31.10;72.00;;;;;;5026769;28;20375;-72
2023/03/30 02:35:22;;;;;;;1999.90;999.90;;;31.30;71.30;;;;;;5026291;28;20107;-73
2023/03/30 02:38:08;;;;;;;1999.90;999.90;;;31.40;72.00;;;;;;5020429;28;20035;-71
2023/03/30 02:40:54;;;;;;;1999.90;999.90;;;31.00;68.80;;;;;;5025013;28;20033;-71
2023/03/30 02:43:46;;;;;;;1999.90;999.90;;;30.60;69.20;;;;;;5028643;28;20017;-71
2023/03/30 02:46:49;;;;;;;1999.90;999.90;;;30.30;71.30;;;;;;5031349;28;20087;-71
2023/03/30 02:49:35;;;;;;;1999.90;999.90;;;30.40;71.10;;;;;;5027113;28;20152;-72
2023/03/30 02:52:07;;;;;;;;;;;30.80;72.20;;;;;;5030640;28;20025;-72
2023/03/30 02:55:13;;;;;;;1999.90;999.90;;;31.10;70.90;;;;;;5034792;28;19925;-71
2023/03/30 02:57:53;;;;;;;1999.90;999.90;;;31.30;70.00;;;;;;5007204;28;20040;-73
2023/03/30 03:00:48;;;;;;;1999.90;999.90;;;31.30;71.30;;;;;;5025337;28;20034;-72
2023/03/30 03:03:35;;;;;;;1999.90;999.90;;;31.50;71.30;;;;;;5031474;28;20024;-73
2023/03/30 03:06:04;;;;;;;1999.90;999.90;;;31.80;70.70;;;;;;5034133;28;20095;-72
2023/03/30 03:08:38;;;;;;;1999.90;999.90;;;32.00;71.30;;;;;;5036943;28;20632;-72
2023/03/30 03:11:06;;;;;;;1999.90;999.90;;;32.10;69.10;;;;;;5024858;28;20033;-73
2023/03/30 03:13:36;;;;;;;1999.90;999.90;;;32.20;70.20;;;;;;5026079;28;20030;-72
2023/03/30 03:16:09;;;;;;;1999.90;999.90;;;32.30;70.20;;;;;;5049378;28;20030;-72
2023/03/30 03:18:43;;;;;;;1999.90;999.90;;;32.40;69.50;;;;;;5024487;28;20037;-73
2023/03/30 03:21:12;;;;;;;1999.90;999.90;;;32.50;69.80;;;;;;5031315;28;20168;-73
2023/03/30 03:23:41;;;;;;;1999.90;999.90;;;32.30;67.00;;;;;;5024002;28;20033;-73
2023/03/30 03:26:10;;;;;;;1999.90;999.90;;;31.60;67.50;;;;;;5029900;28;20115;-73
2023/03/30 03:28:38;;;;;;;1999.90;999.90;;;30.40;68.40;;;;;;5031358;28;20090;-74
2023/03/30 03:31:05;;;;;;;1999.90;999.90;;;29.90;70.30;;;;;;5035339;28;20026;-74
2023/03/30 03:33:33;;;;;;;1999.90;999.90;;;29.20;70.00;;;;;;5026399;28;20597;-71
2023/03/30 03:36:02;;;;;;;1999.90;999.90;;;29.30;70.30;;;;;;5035702;28;20025;-73
2023/03/30 03:38:30;;;;;;;1999.90;999.90;;;29.70;71.40;;;;;;5026485;28;20433;-73
2023/03/30 03:40:58;;;;;;;1999.90;999.90;;;30.10;70.10;;;;;;5034580;28;20037;-74
2023/03/30 03:43:26;;;;;;;1999.90;999.90;;;30.00;68.40;;;;;;5024550;28;20024;-72
2023/03/30 03:45:54;;;;;;;1999.90;999.90;;;29.60;70.80;;;;;;5034733;28;20041;-73
2023/03/30 03:48:23;;;;;;;1999.90;999.90;;;29.90;71.80;;;;;;5023747;28;20041;-76
2023/03/30 03:50:53;;;;;;;1999.90;999.90;;;30.00;70.10;;;;;;5031587;28;20053;-74
2023/03/30 03:53:22;;;;;;;1999.90;999.90;;;29.60;70.00;;;;;;5030108;28;20044;-76
2023/03/30 03:55:49;;;;;;;1999.90;999.90;;;29.90;71.20;;;;;;5025812;28;20037;-72
2023/03/30 03:58:17;;;;;;;1999.90;999.90;;;30.30;71.10;;;;;;5020426;28;20024;-74
2023/03/30 04:00:45;;;;;;;1999.90;999.90;;;30.50;68.80;;;;;;5035912;28;20036;-72
2023/03/30 04:03:12;;;;;;;1999.90;999.90;;;29.90;67.70;;;;;;5030731;28;20033;-72
2023/03/30 04:05:40;;;;;;;1999.90;999.90;;;29.20;68.20;;;;;;5025326;28;20033;-71
2023/03/30 04:08:09;;;;;;;1999.90;999.90;;;28.70;68.70;;;;;;5031397;28;20041;-71
2023/03/30 04:10:39;;;;;;;1999.90;999.90;;;28.20;70.30;;;;;;5029535;28;20040;-72
2023/03/30 04:13:07;;;;;;;1999.90;999.90;;;28.20;69.90;;;;;;5029876;28;20021;-72
2023/03/30 04:15:35;;;;;;;1999.90;999.90;;;27.90;69.90;;;;;;5026117;28;20060;-73
2023/03/30 04:18:04;;;;;;;1999.90;999.90;;;28.00;68.10;;;;;;5025673;28;20025;-73
2023/03/30 04:20:31;;;;;;;1999.90;999.90;;;27.70;68.80;;;;;;5027251;28;20069;-71
2023/03/30 04:23:00;;;;;;;1999.90;999.90;;;27.40;71.30;;;;;;5024679;28;20021;-72
2023/03/30 04:25:28;;;;;;;1999.90;999.90;;;27.40;70.50;;;;;;5027378;28;20060;-73
2023/03/30 04:27:58;;;;;;;1999.90;999.90;;;27.80;71.40;;;;;;5025432;28;20490;-72
2023/03/30 04:30:29;;;;;;;1999.90;999.90;;;28.20;70.60;;;;;;5026709;28;20490;-71
2023/03/30 04:33:03;;;;;;;1999.90;999.90;;;28.50;69.20;;;;;;5023665;28;20582;-75
2023/03/30 04:35:31;;;;;;;1999.90;999.90;;;28.40;70.00;;;;;;5024659;28;20040;-76
2023/03/30 04:38:00;;;;;;;1999.90;999.90;;;28.80;71.90;;;;;;5039209;28;20028;-73
2023/03/30 04:40:28;;;;;;;1999.90;999.90;;;29.10;71.20;;;;;;5032067;28;20033;-75
2023/03/30 04:43:01;;;;;;;1999.90;999.90;;;29.40;69.70;;;;;;5028417;28;20030;-75
2023/03/30 04:45:29;;;;;;;1999.90;999.90;;;29.60;68.60;;;;;;5030585;28;20082;-73
2023/03/30 04:47:56;;;;;;;1999.90;999.90;;;29.50;68.30;;;;;;5021281;28;20488;-74
2023/03/30 04:50:24;;;;;;;1999.90;999.90;;;29.40;68.20;;;;;;5029481;28;20052;-74
2023/03/30 04:52:52;;;;;;;1999.90;999.90;;;29.30;69.10;;;;;;5032568;28;20033;-76
2023/03/30 04:55:19;;;;;;;1999.90;999.90;;;29.40;68.60;;;;;;5031927;28;20087;-74
2023/03/30 04:57:46;;;;;;;1999.90;999.90;;;29.40;69.10;;;;;;5036525;28;20020;-75
2023/03/30 05:00:14;;;;;;;1999.90;999.90;;;29.50;70.70;;;;;;5031944;28;20049;-73
2023/03/30 05:02:42;;;;;;;1999.90;999.90;;;29.60;69.00;;;;;;5026522;28;20423;-74
2023/03/30 05:05:10;;;;;;;1999.90;999.90;;;29.60;69.00;;;;;;5029421;28;20021;-73
2023/03/30 05:07:38;;;;;;;1999.90;999.90;;;29.60;68.00;;;;;;5021971;28;20029;-72
2023/03/30 05:10:06;;;;;;;1999.90;999.90;;;29.40;68.80;;;;;;5027037;28;20411;-73
2023/03/30 05:12:34;;;;;;;1999.90;999.90;;;29.40;68.70;;;;;;5023529;28;20041;-76
2023/03/30 05:15:01;;;;;;;1999.90;999.90;;;29.20;69.50;;;;;;5024717;28;20307;-73
2023/03/30 05:17:33;;;;;;;1999.90;999.90;;;29.10;68.90;;;;;;5028598;28;20739;-72
2023/03/30 05:20:01;;;;;;;1999.90;999.90;;;29.00;68.30;;;;;;5035104;28;20086;-77
2023/03/30 05:22:28;;;;;;;1999.90;999.90;;;28.80;68.50;;;;;;5027751;28;20498;-76
2023/03/30 05:24:56;;;;;;;1999.90;999.90;;;28.40;68.30;;;;;;5019881;28;20036;-74
2023/03/30 05:27:23;;;;;;;1999.90;999.90;;;27.90;68.10;;;;;;5017001;28;20092;-77
2023/03/30 05:29:50;;;;;;;1999.90;999.90;;;27.60;69.40;;;;;;5014790;28;20526;-73
2023/03/30 05:32:18;;;;;;;1999.90;999.90;;;27.60;70.20;;;;;;5016767;28;20041;-75
2023/03/30 05:34:45;;;;;;;1999.90;999.90;;;27.50;70.10;;;;;;5033072;28;20037;-74
2023/03/30 05:37:13;;;;;;;1999.90;999.90;;;27.50;70.00;;;;;;5030977;28;20017;-74
2023/03/30 05:39:41;;;;;;;1999.90;999.90;;;27.70;70.50;;;;;;5026260;28;20033;-74
2023/03/30 05:42:10;;;;;;;1999.90;999.90;;;27.80;69.70;;;;;;5029377;28;20028;-74
2023/03/30 05:44:37;;;;;;;1999.90;999.90;;;27.80;69.50;;;;;;5036594;28;20031;-73
2023/03/30 05:47:05;;;;;;;1999.90;999.90;;;27.70;70.20;;;;;;5026272;28;20396;-73
2023/03/30 05:49:32;;;;;;;1999.90;999.90;;;27.60;69.80;;;;;;5017183;28;20220;-74
2023/03/30 05:52:00;;;;;;;1999.90;999.90;;;27.20;69.40;;;;;;5017120;28;20369;-74
2023/03/30 05:54:27;;;;;;;1999.90;999.90;;;27.10;70.20;;;;;;5022015;28;20045;-74
2023/03/30 05:56:54;;;;;;;1999.90;999.90;;;26.90;70.40;;;;;;5016304;28;20037;-73
2023/03/30 05:59:22;;;;;;;1999.90;999.90;;;26.90;70.20;;;;;;5016755;28;20040;-75
2023/03/30 06:01:49;;;;;;;1999.90;999.90;;;26.80;70.00;;;;;;5034430;28;20032;-73
2023/03/30 06:04:16;;;;;;;1999.90;999.90;;;26.80;70.80;;;;;;5026777;28;20036;-74
2023/03/30 06:06:44;;;;;;;1999.90;999.90;;;26.90;70.10;;;;;;5031473;28;20413;-73
2023/03/30 06:09:11;;;;;;;1999.90;999.90;;;26.80;69.80;;;;;;5024651;28;20025;-73
2023/03/30 06:11:38;;;;;;;1999.90;999.90;;;26.80;69.70;;;;;;5026164;28;20021;-75
2023/03/30 06:14:05;;;;;;;1999.90;999.90;;;26.70;69.10;;;;;;5023586;28;20041;-72
2023/03/30 06:16:33;;;;;;;1999.90;999.90;;;26.60;69.40;;;;;;5026803;28;20033;-72
2023/03/30 06:19:00;;;;;;;1999.90;999.90;;;26.60;70.20;;;;;;5019554;28;20078;-76
2023/03/30 06:21:28;;;;;;;1999.90;999.90;;;26.60;70.10;;;;;;5030184;28;20037;-72
2023/03/30 06:23:55;;;;;;;1999.90;999.90;;;26.40;70.30;;;;;;5027288;28;20449;-71
2023/03/30 06:26:23;;;;;;;1999.90;999.90;;;26.40;70.90;;;;;;5034028;28;20037;-74
2023/03/30 06:28:50;;;;;;;1999.90;999.90;;;26.40;70.80;;;;;;5026497;28;20132;-72
2023/03/30 06:31:17;;;;;;;1999.90;999.90;;;26.40;70.90;;;;;;5032908;28;20044;-72
2023/03/30 06:33:45;;;;;;;1999.90;999.90;;;26.30;70.90;;;;;;5020519;28;20048;-73
2023/03/30 06:36:13;;;;;;;1999.90;999.90;;;26.20;72.60;;;;;;5027939;28;20037;-74
2023/03/30 06:38:44;;;;;;;1999.90;999.90;;;26.10;71.40;;;;;;5025278;28;20033;-74
2023/03/30 06:41:11;;;;;;;1999.90;999.90;;;26.00;71.70;;;;;;5037545;28;20032;-72
2023/03/30 06:43:40;;;;;;;1999.90;999.90;;;26.00;72.40;;;;;;5017348;28;20083;-71
2023/03/30 06:46:07;;;;;;;1999.90;999.90;;;26.00;71.00;;;;;;5034150;28;20099;-74
2023/03/30 06:48:35;;;;;;;1999.90;999.90;;;25.80;71.70;;;;;;5026207;28;20033;-75
2023/03/30 06:51:03;;;;;;;1999.90;999.90;;;25.80;71.90;;;;;;5034619;28;20029;-74
2023/03/30 06:53:30;;;;;;;1999.90;999.90;;;25.70;71.30;;;;;;5037768;28;20037;-73
2023/03/30 06:55:58;;;;;;;1999.90;999.90;;;25.50;70.80;;;;;;5039073;28;20038;-71
2023/03/30 06:58:27;;;;;;;1999.90;999.90;;;25.30;70.30;;;;;;5037603;28;20021;-75
2023/03/30 07:00:55;;;;;;;1999.90;999.90;;;25.10;70.90;;;;;;5034004;28;20889;-72
2023/03/30 07:03:23;;;;;;;1999.90;999.90;;;25.00;70.60;;;;;;5027234;28;20025;-73
2023/03/30 07:05:51;;;;;;;1999.90;999.90;;;24.80;70.70;;;;;;5028741;28;20034;-70
2023/03/30 07:08:20;;;;;;;1999.90;999.90;;;24.70;70.60;;;;;;5031850;28;20484;-71
2023/03/30 07:10:48;;;;;;;1999.90;999.90;;;24.50;70.90;;;;;;5028058;28;20048;-73
2023/03/30 07:13:16;;;;;;;1999.90;999.90;;;24.40;71.90;;;;;;5030070;28;20131;-72
2023/03/30 07:15:45;;;;;;;1999.90;999.90;;;24.20;72.00;;;;;;5026923;28;20032;-73
2023/03/30 07:18:13;;;;;;;1999.90;999.90;;;24.10;71.70;;;;;;5022242;28;20025;-73
2023/03/30 07:20:41;;;;;;;1999.90;999.90;;;24.00;71.80;;;;;;5049350;28;20128;-73
2023/03/30 07:23:10;;;;;;;1999.90;999.90;;;23.80;71.80;;;;;;5025979;28;20021;-71
2023/03/30 07:25:40;;;;;;;1999.90;999.90;;;23.70;72.20;;;;;;5030206;28;20124;-72
2023/03/30 07:28:07;;;;;;;1999.90;999.90;;;23.50;72.80;;;;;;5030720;28;20060;-74
2023/03/30 07:30:35;;;;;;;1999.90;999.90;;;23.30;72.60;;;;;;5021230;28;20159;-73
2023/03/30 07:33:03;;;;;;;1999.90;999.90;;;23.20;73.20;;;;;;5022008;28;20025;-72
2023/03/30 07:35:30;;;;;;;1999.90;999.90;;;23.10;73.00;;;;;;5028909;28;20053;-71
2023/03/30 07:37:58;;;;;;;1999.90;999.90;;;22.90;74.20;;;;;;5032969;28;20099;-70
2023/03/30 07:40:26;;;;;;;1999.90;999.90;;;22.80;74.00;;;;;;5033858;28;20116;-70
2023/03/30 07:42:53;;;;;;;1999.90;999.90;;;22.70;73.60;;;;;;5028309;28;20075;-73
2023/03/30 07:45:20;;;;;;;1999.90;999.90;;;22.50;74.20;;;;;;5030604;28;20025;-70
2023/03/30 07:47:48;;;;;;;1999.90;999.90;;;22.40;74.50;;;;;;5030466;28;20052;-70
2023/03/30 07:50:15;;;;;;;1999.90;999.90;;;22.30;75.20;;;;;;5032857;28;20036;-69
2023/03/30 07:52:43;;;;;;;1999.90;999.90;;;22.20;76.30;;;;;;5032084;28;20033;-71
2023/03/30 07:55:12;;;;;;;1999.90;999.90;;;22.10;77.80;;;;;;5027919;28;20454;-72
2023/03/30 07:57:41;;;;;;;1999.90;999.90;;;21.90;77.50;;;;;;5026366;28;20026;-73
2023/03/30 08:00:09;;;;;;;1999.90;999.90;;;21.80;78.00;;;;;;5036361;28;20048;-71
2023/03/30 08:02:37;;;;;;;1999.90;999.90;;;21.70;78.30;;;;;;5027195;28;20025;-74
2023/03/30 08:05:05;;;;;;;1999.90;999.90;;;21.50;78.50;;;;;;5029002;28;20029;-73
2023/03/30 08:07:34;;;;;;;1999.90;999.90;;;21.40;79.20;;;;;;5032025;28;20447;-72
2023/03/30 08:10:01;;;;;;;1999.90;999.90;;;21.30;79.80;;;;;;5044376;28;20049;-73
2023/03/30 08:12:29;;;;;;;1999.90;999.90;;;21.20;79.80;;;;;;5032345;28;20030;-71
2023/03/30 08:14:56;;;;;;;1999.90;999.90;;;21.10;81.40;;;;;;5035283;28;20038;-73
2023/03/30 08:17:23;;;;;;;1999.90;999.90;;;21.00;80.80;;;;;;5034863;28;20080;-73
2023/03/30 08:19:51;;;;;;;1999.90;999.90;;;20.90;81.60;;;;;;5032012;28;20041;-72
2023/03/30 08:22:18;;;;;;;1999.90;999.90;;;20.90;82.30;;;;;;5031635;28;20098;-73
2023/03/30 08:24:45;;;;;;;1999.90;999.90;;;20.80;82.60;;;;;;5032071;28;20088;-73
2023/03/30 08:27:13;;;;;;;1999.90;999.90;;;20.70;82.60;;;;;;5036980;28;20104;-72
2023/03/30 08:29:40;;;;;;;1999.90;999.90;;;20.60;83.50;;;;;;5040341;28;20037;-72
2023/03/30 08:32:08;;;;;;;1999.90;999.90;;;20.60;83.70;;;;;;5030803;28;20510;-72
2023/03/30 08:34:35;;;;;;;1999.90;999.90;;;20.60;83.50;;;;;;5038296;28;20052;-74
2023/03/30 08:37:04;;;;;;;1999.90;999.90;;;20.50;84.00;;;;;;5031573;28;20092;-72
2023/03/30 08:39:32;;;;;;;1999.90;999.90;;;20.40;84.00;;;;;;5035106;28;20498;-72
2023/03/30 08:42:23;;;;;;;1999.90;999.90;;;20.40;84.10;;;;;;5033586;28;20036;-72
2023/03/30 08:44:55;;;;;;;1999.90;999.90;;;20.30;84.20;;;;;;5030514;28;20033;-71
2023/03/30 08:47:38;;;;;;;1999.90;999.90;;;20.20;85.10;;;;;;5038852;28;20053;-71
2023/03/30 08:50:05;;;;;;;1999.90;999.90;;;20.10;84.90;;;;;;5035115;28;20056;-71
2023/03/30 08:52:33;;;;;;;1999.90;999.90;;;20.10;85.40;;;;;;5032099;28;20707;-70
2023/03/30 08:55:00;;;;;;;1999.90;999.90;;;20.10;84.90;;;;;;5035662;28;20387;-71
2023/03/30 08:57:47;;;;;;;1999.90;999.90;;;20.00;84.00;;;;;;5027819;28;20041;-70
2023/03/30 09:00:38;;;;;;;1999.90;999.90;;;20.00;84.10;;;;;;5034819;28;20037;-71
2023/03/30 09:03:33;;;;;;;1999.90;999.90;;;20.00;83.90;;;;;;5032295;28;20106;-71
2023/03/30 09:06:11;;;;;;;1999.90;999.90;;;19.90;83.90;;;;;;5033812;28;20035;-71
2023/03/30 09:08:39;;;;;;;1999.90;999.90;;;19.90;83.80;;;;;;5027732;28;20051;-71
2023/03/30 09:11:14;;;;;;;1999.90;999.90;;;19.80;83.30;;;;;;5033090;28;20052;-72
2023/03/30 09:13:47;;;;;;;1999.90;999.90;;;19.70;83.40;;;;;;5032129;28;20044;-71
2023/03/30 09:16:33;;;;;;;1999.90;999.90;;;19.70;83.60;;;;;;5030216;28;20278;-70
2023/03/30 09:19:03;;;;;;;1999.90;999.90;;;19.70;83.40;;;;;;5034606;28;20029;-69
2023/03/30 09:21:31;;;;;;;1999.90;999.90;;;19.70;83.70;;;;;;5034045;28;20061;-72
2023/03/30 09:24:05;;;;;;;1999.90;999.90;;;19.60;83.10;;;;;;5027886;28;20124;-72
2023/03/30 09:26:39;;;;;;;1999.90;999.90;;;19.60;84.10;;;;;;5026954;28;20059;-74
2023/03/30 09:29:18;;;;;;;1999.90;999.90;;;19.60;84.00;;;;;;5028536;28;20079;-73
2023/03/30 09:31:57;;;;;;;1999.90;999.90;;;19.50;84.00;;;;;;5027353;28;20121;-74
2023/03/30 09:34:27;;;;;;;1999.90;999.90;;;19.50;84.10;;;;;;5026491;28;20045;-71
2023/03/30 09:36:56;;;;;;;1999.90;999.90;;;19.60;84.00;;;;;;5031107;28;20029;-72
2023/03/30 09:39:29;;;;;;;1999.90;999.90;;;19.50;83.70;;;;;;5037711;28;20040;-71
2023/03/30 09:42:11;;;;;;;1999.90;999.90;;;19.50;83.70;;;;;;5029547;28;20037;-70
2023/03/30 09:44:46;;;;;;;1999.90;999.90;;;19.50;83.90;;;;;;5031360;28;20033;-70
2023/03/30 09:47:37;;;;;;;1999.90;999.90;;;19.40;83.80;;;;;;5027252;28;20068;-68
2023/03/30 09:50:11;;;;;;;1999.90;999.90;;;19.40;84.20;;;;;;5030856;28;20361;-71
2023/03/30 09:52:40;;;;;;;1999.90;999.90;;;19.40;84.10;;;;;;5031463;28;20180;-72
2023/03/30 09:55:28;;;;;;;1999.90;999.90;;;19.40;84.20;;;;;;5033226;28;20086;-70
2023/03/30 09:58:18;;;;;;;1999.90;999.90;;;19.30;84.20;;;;;;5028274;28;20418;-70
2023/03/30 10:01:00;;;;;;;1999.90;999.90;;;19.30;84.30;;;;;;5033020;28;20034;-71
2023/03/30 10:03:28;;;;;;;1999.90;999.90;;;19.20;84.70;;;;;;5030369;28;20029;-71
2023/03/30 10:06:26;;;;;;;1999.90;999.90;;;19.20;84.80;;;;;;5030254;28;20038;-71
2023/03/30 10:08:55;;;;;;;1999.90;999.90;;;19.10;85.00;;;;;;5034359;28;20036;-70
2023/03/30 10:11:55;;;;;;;1999.90;999.90;;;19.10;85.30;;;;;;5030652;28;20087;-70
2023/03/30 10:14:32;;;;;;;1999.90;999.90;;;19.00;85.60;;;;;;5038820;28;20092;-71
2023/03/30 10:17:01;;;;;;;1999.90;999.90;;;19.00;85.80;;;;;;5027644;28;20033;-73
2023/03/30 10:19:29;;;;;;;1999.90;999.90;;;18.90;85.90;;;;;;5029106;28;20087;-70
2023/03/30 10:22:03;;;;;;;1999.90;999.90;;;18.80;86.20;;;;;;5032441;28;20135;-72
2023/03/30 10:24:32;;;;;;;1999.90;999.90;;;18.80;86.70;;;;;;5035547;28;20028;-71
2023/03/30 10:27:10;;;;;;;1999.90;999.90;;;18.70;86.20;;;;;;5037411;28;20499;-71
2023/03/30 10:29:43;;;;;;;1999.90;999.90;;;18.70;86.90;;;;;;5036044;28;20072;-70
2023/03/30 10:32:29;;;;;;;1999.90;999.90;;;18.60;87.00;;;;;;5031642;28;20906;-72
2023/03/30 10:35:00;;;;;;;1999.90;999.90;;;18.50;87.80;;;;;;5028743;28;20044;-72
2023/03/30 10:37:36;;;;;;;1999.90;999.90;;;18.50;87.60;;;;;;5028256;28;20056;-71
2023/03/30 10:40:10;;;;;;;;;;;18.40;88.10;;;;;;5026844;28;20037;-72
2023/03/30 10:42:38;;;;;;;1999.90;999.90;;;18.30;88.50;;;;;;5023051;28;21174;-72
2023/03/30 10:45:07;;;;;;;1999.90;999.90;;;18.20;89.40;;;;;;5026202;28;20032;-72
2023/03/30 10:48:02;;;;;;;1999.90;999.90;;;18.20;90.20;;;;;;5022830;28;20461;-71
2023/03/30 10:50:55;;;;;;;1999.90;999.90;;;18.10;90.10;;;;;;5018660;28;20029;-71
2023/03/30 10:54:01;;;;;;;1999.90;999.90;;;18.00;90.10;;;;;;5024662;28;20124;-70
2023/03/30 10:56:56;;;;;;;1999.90;999.90;;;18.00;90.10;;;;;;5023176;28;20046;-71
2023/03/30 11:00:08;;;;;;;1999.90;999.90;;;18.00;90.00;;;;;;5020653;28;20030;-70
2023/03/30 11:02:55;;;;;;;1999.90;999.90;;;17.90;90.10;;;;;;5018332;28;20048;-72
2023/03/30 11:05:34;;;;;;;1999.90;999.90;;;17.90;90.30;;;;;;5026328;28;20079;-72
2023/03/30 11:08:11;;;;;;;1999.90;999.90;;;17.90;90.50;;;;;;5028441;28;20033;-71
2023/03/30 11:10:43;;;;;;;1999.90;999.90;;;17.80;90.40;;;;;;5026094;28;20030;-70
2023/03/30 11:13:37;;;;;;;1999.90;999.90;;;17.70;90.60;;;;;;5021536;28;20041;-72
2023/03/30 11:16:23;;;;;;;1999.90;999.90;;;17.70;90.70;;;;;;5028396;28;20568;-71
2023/03/30 11:19:14;;;;;;;1999.90;999.90;;;17.60;90.80;;;;;;5026492;28;20480;-72
2023/03/30 11:21:55;;;;;;;1999.90;999.90;;;17.60;91.00;;;;;;5025428;28;20045;-69
2023/03/30 11:24:28;;;;;;;1999.90;999.90;;;17.60;91.10;;;;;;5032624;28;20033;-71
2023/03/30 11:27:25;;;;;;;1999.90;999.90;;;17.60;91.20;;;;;;5031584;28;20484;-72
2023/03/30 11:30:11;;;;;;;1999.90;999.90;;;17.60;91.20;;;;;;5038228;28;20399;-73
2023/03/30 11:32:44;;;;;;;1999.90;999.90;;;17.60;91.30;;;;;;5028635;28;20365;-72
2023/03/30 11:35:28;;;;;;;1999.90;999.90;;;17.50;91.40;;;;;;5044466;28;20051;-71
2023/03/30 11:38:08;;;;;;;1999.90;999.90;;;17.50;91.50;;;;;;5029224;28;20060;-71
2023/03/30 11:40:46;;;;;;;1999.90;999.90;;;17.50;91.60;;;;;;5032184;28;20519;-71
2023/03/30 11:43:18;;;;;;;1999.90;999.90;;;17.50;91.60;;;;;;5031164;28;20025;-69
2023/03/30 11:46:04;;;;;;;1999.90;999.90;;;17.50;91.50;;;;;;5038711;28;20049;-70
2023/03/30 11:48:56;;;;;;;1999.90;999.90;;;17.40;91.80;;;;;;5036828;28;20604;-72
2023/03/30 11:51:38;;;;;;;1999.90;999.90;;;17.40;91.70;;;;;;5037449;28;20022;-72
2023/03/30 11:54:42;;;;;;;1999.90;999.90;;;17.30;91.90;;;;;;5022443;28;20087;-72
2023/03/30 11:57:24;;;;;;;1999.90;999.90;;;17.30;92.10;;;;;;5020341;28;20040;-74
2023/03/30 12:00:08;;;;;;;1999.90;999.90;;;17.20;92.30;;;;;;5017831;28;21564;-71
2023/03/30 12:02:53;;;;;;;1999.90;999.90;;;17.10;92.40;;;;;;5027543;28;20048;-71
2023/03/30 12:05:29;;;;;;;1999.90;999.90;;;17.10;93.10;;;;;;5038632;28;20484;-72
2023/03/30 12:08:12;;;;;;;1999.90;999.90;;;17.00;93.80;;;;;;5033474;28;20064;-69
2023/03/30 12:10:41;;;;;;;1999.90;999.90;;;16.90;93.50;;;;;;5038860;28;20100;-70
2023/03/30 12:13:14;;;;;;;1999.90;999.90;;;16.90;93.40;;;;;;5031508;28;20034;-70
2023/03/30 12:15:50;;;;;;;1999.90;999.90;;;16.80;93.70;;;;;;5040016;28;20041;-72
2023/03/30 12:18:41;;;;;;;1999.90;999.90;;;16.70;94.60;;;;;;5034609;28;20107;-71
2023/03/30 12:21:17;;;;;;;1999.90;999.90;;;16.60;94.20;;;;;;5035392;28;20052;-70
2023/03/30 12:24:06;;;;;;;1999.90;999.90;;;16.60;94.50;;;;;;5025977;28;20025;-71
2023/03/30 12:26:36;;;;;;;1999.90;999.90;;;16.60;94.60;;;;;;5036811;28;20074;-71
2023/03/30 12:29:13;;;;;;;1999.90;999.90;;;16.50;94.80;;;;;;5031660;28;20033;-71
2023/03/30 12:31:57;;;;;;;1999.90;999.90;;;16.50;95.20;;;;;;5031240;28;20033;-70
2023/03/30 12:34:27;;;;;;;1999.90;999.90;;;16.40;95.40;;;;;;5025850;28;20045;-70